Glencoe, MN (55336)

9:06 AM CDT on October 01, 2016 (GMT -0500)
Severance Lake | | Change Station

Elev 997 ft 44.68 °N, 94.13 °W | Updated 1 minute ago

Fog
Fog
52.6 °F
Feels Like 52.6 °F
N
2.0
Wind Variable Wind from NE
Gusts 6.0 mph

Today
High -- | Low -- °F
--% Chance of Precip.
Yesterday
High -- | Low -- °F
Precip. -- in
Pressure 30.18 in
Visibility 0.5 miles
Clouds Overcast 100 ft
Dew Point 52 °F
Humidity 98%
Rainfall 0.00 in
Snow Depth Not available.
7:15 AM 6:56 PM
New Moon, 0% visible
METAR KGYL 011354Z AUTO 02004KT 1/2SM FG OVC001 12/12 A3018 RMK AO2 T01150116
Pressure 30.18 in
Visibility 0.5 miles
Clouds Overcast 100 ft
Dew Point 52 °F
Humidity 98%
Rainfall 0.00 in
Snow Depth Not available.
7:15 AM 6:56 PM
New Moon, 0% visible
METAR KGYL 011354Z AUTO 02004KT 1/2SM FG OVC001 12/12 A3018 RMK AO2 T01150116

10-Day Weather Forecast

Almanac

Astronomy

Oct. 01, 2016 Rise Set
Actual Time
Civil Twilight
Nautical Twilight
Astronomical Twilight
Moon
Length of Visible Light
Length of Day
Tomorrow will be .
, % of the Moon is Illuminated

Today's Extremes

State Highs State Lows

Community

WunderPhotos

Upload Photos

1,942,932 photos uploaded!

WunderBlog® & News

Nearby

Air Quality

  Air Quality AQ Index Pollutant
Not available.

Snow Depth

Station Depth Elevation

Earthquake Activity

City Distance Mag. Time & Date
Minimum magnitude displayed is 2.5.

Coastal Water Temperatures

Place Temperature

Stations

Nearby Weather Stations

Station Location Temp. Windchill Dew Point Humidity Wind Precip. Elev Updated Type
                   

Watches & Warnings

There are currently no watches in effect.